Time;durP1;ratioP1;P1;durP2;ratioP2;P2;SDS_P1;SDS_P2;PMS_P1;PMS_P2;Temp;Humidity;BMP_temperature;BMP_pressure;BME280_temperature;BME280_humidity;BME280_pressure;Samples;Min_cycle;Max_cycle;Signal;HPM_P1;HPM_P2
2023/08/22 00:02:16;;;;;;;764.03;698.38;;;15.60;79.60;;;;;;6151009;22;20397;-91
2023/08/22 00:04:49;;;;;;;756.00;691.60;;;15.60;79.90;;;;;;6219609;22;20042;-91
2023/08/22 00:07:25;;;;;;;725.70;664.28;;;15.60;80.00;;;;;;6252448;22;20035;-91
2023/08/22 00:10:07;;;;;;;;;;;;;;;;;;;;;
2023/08/22 00:12:35;;;;;;;807.13;734.40;;;15.80;81.40;;;;;;6232655;22;20026;-91
2023/08/22 00:15:10;;;;;;;799.20;726.33;;;15.80;80.90;;;;;;6241768;22;20074;-91
2023/08/22 00:18:01;;;;;;;753.10;686.45;;;15.80;80.80;;;;;;6206106;22;20019;-92
2023/08/22 00:20:30;;;;;;;748.13;685.67;;;15.80;80.80;;;;;;6236230;22;20055;-90
2023/08/22 00:23:01;;;;;;;757.67;692.15;;;15.90;81.00;;;;;;6272895;22;20103;-91
2023/08/22 00:25:33;;;;;;;759.70;692.25;;;16.00;81.20;;;;;;6222911;22;20019;-91
2023/08/22 00:27:59;;;;;;;746.30;681.13;;;15.90;80.90;;;;;;6251706;22;20015;-91
2023/08/22 00:30:27;;;;;;;736.83;674.13;;;16.00;80.90;;;;;;6272971;22;20148;-91
2023/08/22 00:32:54;;;;;;;740.05;677.08;;;16.00;80.90;;;;;;6190098;22;20020;-91
2023/08/22 00:35:28;;;;;;;796.55;722.47;;;16.00;81.20;;;;;;6223340;22;20016;-91
2023/08/22 00:37:57;;;;;;;801.75;730.20;;;16.00;81.20;;;;;;6191804;22;20031;-91
2023/08/22 00:40:29;;;;;;;788.15;719.45;;;16.00;81.00;;;;;;6274301;22;20039;-91
2023/08/22 00:43:15;;;;;;;761.88;695.70;;;16.00;80.90;;;;;;6271289;22;20031;-91
2023/08/22 00:45:43;;;;;;;785.70;716.70;;;16.00;80.90;;;;;;6223107;22;20080;-91
2023/08/22 00:48:22;;;;;;;743.38;679.75;;;16.00;81.20;;;;;;6264078;22;20515;-91
2023/08/22 00:50:53;;;;;;;743.65;681.00;;;16.00;81.10;;;;;;6273856;22;20058;-91
2023/08/22 00:53:37;;;;;;;;;;;;;;;;;;;;;
2023/08/22 00:56:13;;;;;;;814.28;739.40;;;16.00;81.10;;;;;;6248140;22;20012;-92
2023/08/22 00:58:48;;;;;;;792.17;722.53;;;16.00;81.00;;;;;;6239122;22;20421;-92
2023/08/22 01:01:17;;;;;;;797.03;726.25;;;15.90;80.90;;;;;;6223533;22;20091;-91
2023/08/22 01:03:45;;;;;;;783.97;715.83;;;15.90;80.80;;;;;;6271344;22;20030;-91
2023/08/22 01:06:48;;;;;;;750.78;687.40;;;15.90;80.90;;;;;;6272299;22;20106;-92
2023/08/22 01:09:35;;;;;;;756.92;692.90;;;16.00;81.30;;;;;;6230252;22;20019;-92
2023/08/22 01:12:29;;;;;;;787.97;719.60;;;16.00;81.50;;;;;;6270605;22;20016;-90
2023/08/22 01:15:05;;;;;;;754.53;687.47;;;16.00;81.30;;;;;;6222700;22;20011;-92
2023/08/22 01:17:36;;;;;;;750.80;685.13;;;16.00;81.10;;;;;;6248400;22;20364;-92
2023/08/22 01:20:04;;;;;;;831.25;754.63;;;16.00;81.10;;;;;;6273825;22;20350;-91
2023/08/22 01:22:30;;;;;;;811.40;736.42;;;15.90;81.20;;;;;;6271144;22;20026;-92
2023/08/22 01:24:59;;;;;;;751.65;686.20;;;15.90;81.20;;;;;;6222518;22;20107;-91
2023/08/22 01:27:35;;;;;;;765.20;696.90;;;15.90;81.10;;;;;;6195356;22;20099;-91
2023/08/22 01:30:18;;;;;;;785.90;717.80;;;15.90;81.10;;;;;;6241192;22;20473;-91
2023/08/22 01:32:49;;;;;;;730.40;667.70;;;15.90;81.00;;;;;;6270234;22;20012;-90
2023/08/22 01:35:26;;;;;;;738.00;674.65;;;15.90;81.00;;;;;;6273405;22;20069;-90
2023/08/22 01:37:54;;;;;;;824.80;748.60;;;15.80;81.20;;;;;;6266442;22;20055;-92
2023/08/22 01:40:26;;;;;;;798.20;723.65;;;15.80;81.20;;;;;;6222462;22;20027;-91
2023/08/22 01:42:56;;;;;;;792.55;721.30;;;15.80;81.00;;;;;;6209834;22;20015;-91
2023/08/22 01:45:31;;;;;;;756.28;691.78;;;15.80;81.00;;;;;;6239228;22;20016;-91
2023/08/22 01:48:03;;;;;;;752.20;688.08;;;15.70;81.00;;;;;;6166625;22;20038;-92
2023/08/22 01:50:29;;;;;;;819.05;744.53;;;15.70;81.10;;;;;;6209493;22;20020;-91
2023/08/22 01:53:35;;;;;;;841.53;765.22;;;15.60;81.00;;;;;;6259946;22;20027;-91
2023/08/22 01:56:13;;;;;;;800.25;726.88;;;15.60;80.90;;;;;;6220551;22;20022;-91
2023/08/22 01:58:42;;;;;;;759.95;691.55;;;15.60;80.80;;;;;;6214506;22;20020;-91
2023/08/22 02:01:19;;;;;;;819.60;742.60;;;15.60;80.80;;;;;;6273280;22;20058;-91
2023/08/22 02:04:05;;;;;;;785.08;716.20;;;15.60;80.80;;;;;;6241318;22;20050;-91
2023/08/22 02:06:31;;;;;;;828.40;749.92;;;15.50;80.70;;;;;;6193086;22;20705;-93
2023/08/22 02:09:03;;;;;;;780.17;709.03;;;15.50;80.70;;;;;;6240844;22;20024;-90
2023/08/22 02:11:32;;;;;;;777.22;708.58;;;15.50;80.70;;;;;;6196832;22;20018;-91
2023/08/22 02:14:09;;;;;;;817.65;743.63;;;15.50;80.80;;;;;;6270700;22;20034;-91
2023/08/22 02:16:37;;;;;;;829.20;752.00;;;15.50;80.90;;;;;;6213671;22;20016;-93
2023/08/22 02:19:03;;;;;;;752.65;686.25;;;15.50;80.80;;;;;;6236455;22;20043;-90
2023/08/22 02:21:29;;;;;;;742.70;677.10;;;15.50;80.80;;;;;;6270324;22;20350;-91
2023/08/22 02:24:06;;;;;;;748.25;681.42;;;15.50;80.80;;;;;;6255729;22;20023;-91
2023/08/22 02:26:42;;;;;;;760.38;692.85;;;15.50;80.90;;;;;;6267385;22;20043;-91
2023/08/22 02:29:09;;;;;;;818.38;743.63;;;15.50;80.90;;;;;;6218577;22;20489;-91
2023/08/22 02:31:35;;;;;;;848.90;772.30;;;15.50;80.70;;;;;;6278264;22;20341;-91
2023/08/22 02:34:04;;;;;;;808.17;733.60;;;15.40;80.70;;;;;;6275748;22;20027;-91
2023/08/22 02:36:32;;;;;;;785.35;714.72;;;15.30;80.50;;;;;;6272439;22;20011;-92
2023/08/22 02:39:10;;;;;;;791.03;718.22;;;15.30;80.50;;;;;;6275514;22;20437;-91
2023/08/22 02:41:36;;;;;;;766.72;700.38;;;15.30;80.60;;;;;;6278189;22;20034;-92
2023/08/22 02:44:04;;;;;;;821.95;745.08;;;15.20;80.50;;;;;;6237453;22;20048;-90
2023/08/22 02:46:31;;;;;;;781.20;710.70;;;15.10;80.50;;;;;;6246616;22;20098;-93
2023/08/22 02:48:57;;;;;;;775.38;704.47;;;15.00;80.50;;;;;;6233118;22;20023;-90
2023/08/22 02:51:23;;;;;;;812.60;738.03;;;15.00;80.40;;;;;;6252829;22;20071;-91
2023/08/22 02:53:54;;;;;;;837.72;759.28;;;14.90;80.30;;;;;;6249440;22;20349;-92
2023/08/22 02:56:25;;;;;;;831.28;756.42;;;14.90;80.30;;;;;;6275136;22;20042;-91
2023/08/22 02:58:54;;;;;;;761.58;693.67;;;14.80;80.20;;;;;;6270876;22;20050;-91
2023/08/22 03:01:29;;;;;;;780.47;712.08;;;14.70;80.30;;;;;;6226618;22;20020;-92
2023/08/22 03:03:58;;;;;;;802.72;733.22;;;14.60;80.20;;;;;;6250114;22;20392;-89
2023/08/22 03:06:30;;;;;;;795.75;719.13;;;14.50;80.30;;;;;;6248228;22;20048;-92
2023/08/22 03:08:56;;;;;;;799.67;722.50;;;14.50;80.40;;;;;;6272736;22;20441;-91
2023/08/22 03:11:22;;;;;;;826.95;753.20;;;14.50;80.50;;;;;;6227039;22;20518;-91
2023/08/22 03:13:50;;;;;;;809.22;732.35;;;14.50;80.50;;;;;;6274627;22;20026;-90
2023/08/22 03:16:31;;;;;;;795.47;720.72;;;14.50;80.40;;;;;;6274154;22;20015;-92
2023/08/22 03:18:57;;;;;;;781.25;706.67;;;14.50;80.80;;;;;;6249031;22;20053;-91
2023/08/22 03:21:29;;;;;;;760.15;694.15;;;14.50;81.00;;;;;;6277698;22;20446;-91
2023/08/22 03:23:55;;;;;;;748.58;682.72;;;14.60;81.20;;;;;;6222234;22;20525;-91
2023/08/22 03:26:23;;;;;;;749.17;683.25;;;14.60;81.40;;;;;;6248364;22;20046;-93
2023/08/22 03:28:51;;;;;;;701.90;642.45;;;14.70;81.90;;;;;;6271078;22;20314;-91
2023/08/22 03:31:22;;;;;;;725.22;664.33;;;14.70;81.80;;;;;;6276851;22;20106;-91
2023/08/22 03:33:51;;;;;;;691.15;631.95;;;14.80;81.90;;;;;;6249439;22;20318;-90
2023/08/22 03:36:24;;;;;;;728.95;666.38;;;14.80;82.20;;;;;;6275267;22;20464;-92
2023/08/22 03:38:51;;;;;;;739.78;679.60;;;14.80;82.40;;;;;;6273337;22;20026;-91
2023/08/22 03:41:27;;;;;;;680.67;624.08;;;14.90;82.50;;;;;;6277984;22;20015;-91
2023/08/22 03:43:55;;;;;;;752.60;686.47;;;15.00;82.60;;;;;;6249190;22;20030;-90
2023/08/22 03:46:24;;;;;;;800.10;727.72;;;14.90;82.50;;;;;;6274212;22;20077;-93
2023/08/22 03:48:55;;;;;;;770.50;701.65;;;14.90;82.40;;;;;;6203735;22;20019;-91
2023/08/22 03:51:20;;;;;;;748.97;685.50;;;14.90;82.30;;;;;;6252638;22;20017;-90
2023/08/22 03:53:46;;;;;;;729.25;665.42;;;14.90;82.40;;;;;;6224815;22;20384;-92
2023/08/22 03:56:12;;;;;;;721.10;658.50;;;14.90;82.30;;;;;;6275457;22;20023;-90
2023/08/22 03:58:41;;;;;;;788.30;719.10;;;14.90;82.40;;;;;;6266673;22;20087;-93
2023/08/22 04:01:07;;;;;;;725.60;662.03;;;14.90;82.40;;;;;;6275937;22;20394;-90
2023/08/22 04:03:33;;;;;;;732.15;668.35;;;14.90;82.40;;;;;;6273688;22;20015;-89
2023/08/22 04:05:59;;;;;;;758.80;692.45;;;14.80;82.30;;;;;;6276562;22;20018;-92
2023/08/22 04:08:25;;;;;;;782.72;713.70;;;14.80;82.20;;;;;;6266799;22;20016;-91
2023/08/22 04:10:52;;;;;;;783.15;709.72;;;14.70;82.00;;;;;;6251582;22;20021;-91
2023/08/22 04:13:18;;;;;;;783.10;710.20;;;14.60;81.90;;;;;;6249705;22;20031;-91
2023/08/22 04:15:47;;;;;;;761.28;691.35;;;14.50;81.90;;;;;;6248142;22;20303;-91
2023/08/22 04:18:13;;;;;;;797.65;722.08;;;14.50;81.90;;;;;;6260729;22;20019;-92
2023/08/22 04:20:39;;;;;;;805.72;730.00;;;14.50;81.90;;;;;;6222185;22;20102;-91
2023/08/22 04:23:05;;;;;;;799.97;727.60;;;14.40;81.80;;;;;;6271069;22;20038;-91
2023/08/22 04:25:31;;;;;;;759.72;690.55;;;14.40;81.70;;;;;;6274130;22;20027;-91
2023/08/22 04:27:57;;;;;;;785.47;714.35;;;14.30;81.40;;;;;;6241550;22;20020;-91
2023/08/22 04:30:23;;;;;;;827.17;745.05;;;14.20;81.30;;;;;;6271400;22;20026;-91
2023/08/22 04:32:49;;;;;;;780.83;705.88;;;14.10;81.20;;;;;;6243776;22;20020;-92
2023/08/22 04:35:15;;;;;;;753.78;682.47;;;14.10;81.30;;;;;;6246731;22;20073;-90
2023/08/22 04:37:41;;;;;;;765.72;693.20;;;14.00;81.30;;;;;;6212623;22;20051;-91
2023/08/22 04:40:07;;;;;;;797.00;718.85;;;14.00;81.30;;;;;;6221196;22;20059;-90
2023/08/22 04:42:34;;;;;;;805.25;725.13;;;14.00;81.40;;;;;;6245665;22;20062;-91
2023/08/22 04:45:00;;;;;;;763.40;690.20;;;14.00;81.40;;;;;;6248071;22;20024;-91
2023/08/22 04:47:26;;;;;;;724.05;657.75;;;14.00;81.40;;;;;;6213738;22;20072;-90
2023/08/22 04:49:51;;;;;;;707.08;645.25;;;14.00;81.30;;;;;;6221911;22;20035;-91
2023/08/22 04:52:17;;;;;;;781.67;703.92;;;14.00;81.40;;;;;;6246846;22;20088;-90
2023/08/22 04:54:46;;;;;;;768.10;695.28;;;14.00;81.50;;;;;;6222970;22;20329;-92
2023/08/22 04:57:12;;;;;;;731.50;662.78;;;14.00;81.50;;;;;;6268698;22;20457;-90
2023/08/22 04:59:38;;;;;;;771.83;698.67;;;14.00;81.80;;;;;;6202108;22;20019;-91
2023/08/22 05:02:05;;;;;;;761.40;691.38;;;14.10;81.80;;;;;;6276181;22;20072;-90
2023/08/22 05:04:30;;;;;;;763.08;692.63;;;14.10;81.60;;;;;;6228439;22;20057;-91
2023/08/22 05:06:56;;;;;;;788.78;715.58;;;14.00;81.50;;;;;;6271111;22;20015;-91
2023/08/22 05:09:25;;;;;;;764.55;691.30;;;14.00;81.50;;;;;;6274653;22;20043;-91
2023/08/22 05:11:50;;;;;;;764.20;689.90;;;14.00;81.50;;;;;;6277650;22;20019;-91
2023/08/22 05:14:16;;;;;;;772.15;696.80;;;13.90;81.50;;;;;;6274330;22;20521;-90
2023/08/22 05:16:43;;;;;;;774.20;698.30;;;13.90;81.40;;;;;;6196514;22;20043;-91
2023/08/22 05:19:09;;;;;;;768.20;697.28;;;13.90;81.50;;;;;;6248387;22;20026;-90
2023/08/22 05:21:35;;;;;;;799.70;726.88;;;13.90;81.50;;;;;;6278487;22;20019;-91
2023/08/22 05:24:00;;;;;;;764.33;690.50;;;13.90;81.50;;;;;;6274019;22;20031;-90
2023/08/22 05:26:27;;;;;;;737.38;670.83;;;13.90;81.70;;;;;;6270329;22;20456;-89
2023/08/22 05:28:52;;;;;;;708.83;648.60;;;14.00;82.40;;;;;;6242606;22;20095;-92
2023/08/22 05:31:23;;;;;;;711.10;650.97;;;14.20;83.00;;;;;;6248914;22;20116;-91
2023/08/22 05:33:50;;;;;;;699.88;641.45;;;14.40;83.00;;;;;;6273168;22;20026;-90
2023/08/22 05:36:16;;;;;;;696.63;639.30;;;14.50;83.30;;;;;;6276944;22;20108;-91
2023/08/22 05:38:42;;;;;;;707.92;649.70;;;14.70;83.40;;;;;;6271656;22;20016;-90
2023/08/22 05:41:08;;;;;;;738.47;677.75;;;14.80;83.60;;;;;;6278922;22;20105;-92
2023/08/22 05:43:35;;;;;;;712.10;652.67;;;14.90;83.70;;;;;;6250285;22;20043;-91
2023/08/22 05:46:02;;;;;;;708.75;651.13;;;15.00;83.80;;;;;;6252358;22;20023;-91
2023/08/22 05:48:29;;;;;;;696.75;640.92;;;15.00;83.80;;;;;;6267834;22;20023;-91
2023/08/22 05:50:56;;;;;;;733.50;672.92;;;15.20;83.70;;;;;;6227562;22;20512;-91
2023/08/22 05:53:25;;;;;;;696.80;639.72;;;15.30;83.70;;;;;;6275912;22;20457;-91
2023/08/22 05:55:51;;;;;;;673.85;619.60;;;15.40;83.80;;;;;;6278097;22;20019;-91
2023/08/22 05:58:17;;;;;;;714.53;656.20;;;15.50;83.70;;;;;;6268035;22;20037;-91
2023/08/22 06:00:43;;;;;;;677.45;623.25;;;15.60;83.60;;;;;;6277871;22;20053;-91
2023/08/22 06:03:09;;;;;;;741.88;680.38;;;15.80;83.50;;;;;;6224331;22;20015;-90
2023/08/22 06:05:35;;;;;;;710.83;652.55;;;15.80;83.40;;;;;;6226993;22;20011;-91
2023/08/22 06:08:01;;;;;;;717.22;657.35;;;15.90;83.20;;;;;;6243040;22;20019;-91
2023/08/22 06:10:27;;;;;;;730.25;669.88;;;16.00;83.20;;;;;;6251776;22;20328;-91
2023/08/22 06:12:52;;;;;;;766.17;697.80;;;16.00;83.20;;;;;;6225795;22;20076;-91
2023/08/22 06:15:18;;;;;;;732.50;672.17;;;16.00;83.20;;;;;;6277577;22;20038;-90
2023/08/22 06:17:44;;;;;;;704.53;647.38;;;16.00;83.20;;;;;;6254792;22;20030;-91
2023/08/22 06:20:10;;;;;;;732.95;672.45;;;16.10;83.20;;;;;;6277171;22;20088;-91
2023/08/22 06:22:36;;;;;;;695.05;638.67;;;16.20;83.20;;;;;;6275390;22;20019;-91
2023/08/22 06:25:05;;;;;;;723.63;663.30;;;16.20;83.10;;;;;;6277300;22;20019;-91
2023/08/22 06:27:31;;;;;;;751.22;688.33;;;16.30;83.20;;;;;;6242727;22;20041;-91
2023/08/22 06:29:57;;;;;;;728.00;668.45;;;16.30;83.20;;;;;;6246363;22;20020;-91
2023/08/22 06:32:23;;;;;;;759.45;697.33;;;16.40;83.30;;;;;;6220091;22;20125;-90
2023/08/22 06:34:49;;;;;;;780.83;713.42;;;16.40;83.30;;;;;;6196266;22;20016;-90
2023/08/22 06:37:15;;;;;;;737.30;678.22;;;16.40;83.30;;;;;;6214516;22;20012;-91
2023/08/22 06:39:41;;;;;;;727.35;666.53;;;16.40;83.30;;;;;;6220426;22;20456;-90
2023/08/22 06:42:07;;;;;;;758.17;693.65;;;16.50;83.30;;;;;;6219679;22;20039;-90
2023/08/22 06:44:33;;;;;;;771.20;706.90;;;16.60;83.40;;;;;;6221475;22;20012;-90
2023/08/22 06:46:58;;;;;;;809.50;739.55;;;16.70;83.20;;;;;;6214321;22;20026;-90
2023/08/22 06:49:25;;;;;;;742.28;679.88;;;16.70;83.10;;;;;;6193444;22;20106;-91
2023/08/22 06:51:50;;;;;;;783.05;716.95;;;16.80;83.00;;;;;;6221762;22;20469;-91
2023/08/22 06:54:16;;;;;;;741.88;677.83;;;16.90;83.10;;;;;;6219656;22;20015;-90
2023/08/22 06:56:42;;;;;;;743.55;679.95;;;16.90;83.00;;;;;;6240927;22;20019;-91
2023/08/22 06:59:09;;;;;;;776.60;711.22;;;17.00;82.90;;;;;;6167798;22;20059;-91
2023/08/22 07:01:35;;;;;;;804.88;735.47;;;17.10;82.90;;;;;;6222036;22;20020;-90
2023/08/22 07:04:01;;;;;;;822.72;751.67;;;17.20;82.50;;;;;;6218789;22;20023;-90
2023/08/22 07:06:27;;;;;;;832.42;757.08;;;17.20;82.20;;;;;;6242474;22;20054;-90
2023/08/22 07:08:53;;;;;;;808.97;736.83;;;17.30;82.20;;;;;;6191449;22;20016;-90
2023/08/22 07:11:19;;;;;;;809.90;738.75;;;17.40;82.10;;;;;;6195855;22;20019;-90
2023/08/22 07:13:45;;;;;;;858.20;780.45;;;17.40;81.70;;;;;;6194934;22;20502;-91
2023/08/22 07:16:14;;;;;;;852.85;775.72;;;17.40;81.70;;;;;;6245515;22;20030;-91
2023/08/22 07:18:40;;;;;;;862.03;783.97;;;17.50;81.60;;;;;;6188664;22;20020;-93
2023/08/22 07:21:07;;;;;;;816.65;747.30;;;17.50;81.50;;;;;;6171059;22;20457;-91
2023/08/22 07:23:35;;;;;;;820.42;747.88;;;17.50;81.40;;;;;;6218644;22;20030;-90
2023/08/22 07:26:02;;;;;;;827.90;751.83;;;17.60;81.50;;;;;;6196825;22;20030;-91
2023/08/22 07:28:28;;;;;;;820.78;747.88;;;17.70;81.40;;;;;;6211584;22;20674;-91
2023/08/22 07:31:00;;;;;;;837.65;763.42;;;17.80;81.40;;;;;;6269217;22;20019;-91
2023/08/22 07:33:29;;;;;;;824.97;752.67;;;17.80;81.40;;;;;;6275190;22;20023;-91
2023/08/22 07:35:54;;;;;;;813.85;741.78;;;17.90;81.20;;;;;;6252161;22;20449;-91
2023/08/22 07:38:20;;;;;;;833.53;761.85;;;18.00;81.30;;;;;;6269650;22;20019;-90
2023/08/22 07:40:46;;;;;;;866.60;786.03;;;18.00;81.30;;;;;;6276281;22;20021;-89
2023/08/22 07:43:12;;;;;;;833.05;759.55;;;18.20;80.90;;;;;;6249894;22;20027;-91
2023/08/22 07:45:38;;;;;;;806.95;737.50;;;18.20;80.90;;;;;;6277157;22;20119;-90
2023/08/22 07:48:04;;;;;;;885.80;803.47;;;18.40;81.00;;;;;;6216546;22;20027;-90
2023/08/22 07:50:33;;;;;;;853.55;775.95;;;18.50;80.80;;;;;;6276756;22;20062;-91
2023/08/22 07:53:00;;;;;;;851.00;772.47;;;18.50;80.70;;;;;;6249057;22;20441;-91
2023/08/22 07:55:26;;;;;;;879.38;795.65;;;18.60;80.90;;;;;;6277336;22;20015;-90
2023/08/22 07:57:52;;;;;;;889.88;806.63;;;18.60;80.50;;;;;;6267514;22;20066;-91
2023/08/22 08:00:18;;;;;;;837.00;762.20;;;18.60;80.30;;;;;;6251458;22;20506;-90
2023/08/22 08:02:45;;;;;;;801.10;730.95;;;18.70;80.00;;;;;;6260830;22;20022;-91
2023/08/22 08:05:12;;;;;;;824.25;749.20;;;18.70;80.10;;;;;;6251355;22;20023;-91
2023/08/22 08:07:39;;;;;;;841.70;765.22;;;18.70;80.10;;;;;;6241433;22;20016;-91
2023/08/22 08:10:05;;;;;;;870.10;788.72;;;18.70;80.10;;;;;;6251153;22;20015;-89
2023/08/22 08:12:31;;;;;;;890.88;803.53;;;18.80;79.70;;;;;;6275804;22;20091;-91
2023/08/22 08:14:57;;;;;;;861.80;781.70;;;18.90;79.40;;;;;;6251600;22;20046;-91
2023/08/22 08:17:28;;;;;;;854.88;776.22;;;18.90;79.30;;;;;;6267774;22;20441;-91
2023/08/22 08:19:54;;;;;;;854.35;776.03;;;19.00;79.30;;;;;;6278761;22;20023;-90
2023/08/22 08:22:21;;;;;;;833.50;756.33;;;19.10;79.10;;;;;;6276687;22;20019;-90
2023/08/22 08:24:48;;;;;;;838.28;760.80;;;19.20;78.60;;;;;;6203058;22;20038;-91
2023/08/22 08:27:14;;;;;;;821.55;745.67;;;19.30;78.30;;;;;;6269933;22;20080;-91
2023/08/22 08:29:40;;;;;;;781.33;713.35;;;19.40;78.00;;;;;;6277975;22;20117;-90
2023/08/22 08:32:06;;;;;;;794.42;723.70;;;19.40;77.50;;;;;;6277614;22;20015;-90
2023/08/22 08:34:32;;;;;;;826.65;750.78;;;19.50;77.20;;;;;;6252972;22;20497;-91
2023/08/22 08:36:58;;;;;;;848.38;768.53;;;19.50;76.70;;;;;;6245526;22;20019;-92
2023/08/22 08:39:23;;;;;;;819.80;743.00;;;19.50;76.70;;;;;;6278392;22;20015;-91
2023/08/22 08:42:03;;;;;;;815.55;740.75;;;19.50;76.20;;;;;;6278110;22;20019;-90
2023/08/22 08:44:34;;;;;;;838.95;761.83;;;19.50;75.50;;;;;;6252497;22;20029;-90
2023/08/22 08:47:01;;;;;;;833.83;755.17;;;19.50;75.70;;;;;;6270918;22;20424;-91
2023/08/22 08:49:28;;;;;;;822.83;746.83;;;19.50;75.70;;;;;;6276642;22;20035;-91
2023/08/22 08:51:56;;;;;;;859.42;778.22;;;19.60;76.10;;;;;;6227133;22;20407;-89
2023/08/22 08:54:22;;;;;;;813.10;737.25;;;19.70;76.10;;;;;;6251221;22;20457;-89
2023/08/22 08:56:48;;;;;;;790.20;719.85;;;19.90;75.90;;;;;;6220732;22;20110;-89
2023/08/22 08:59:14;;;;;;;821.95;745.88;;;20.00;75.00;;;;;;6251095;22;20047;-88
2023/08/22 09:01:43;;;;;;;788.47;720.30;;;20.00;74.60;;;;;;6278565;22;20398;-89
2023/08/22 09:04:10;;;;;;;782.75;713.03;;;20.00;74.60;;;;;;6250851;22;20019;-90
2023/08/22 09:06:37;;;;;;;814.63;741.85;;;20.00;74.70;;;;;;6246664;22;20015;-90
2023/08/22 09:09:08;;;;;;;814.38;741.38;;;20.00;74.40;;;;;;6249305;22;20019;-89
2023/08/22 09:11:42;;;;;;;788.58;720.30;;;20.00;74.30;;;;;;6253052;22;20015;-88
2023/08/22 09:14:10;;;;;;;823.10;749.13;;;20.00;73.60;;;;;;6251293;22;20019;-89
2023/08/22 09:16:36;;;;;;;819.78;746.35;;;20.00;73.90;;;;;;6246778;22;20098;-90
2023/08/22 09:19:02;;;;;;;820.20;745.97;;;20.10;73.80;;;;;;6249464;22;20408;-89
2023/08/22 09:21:29;;;;;;;808.47;737.50;;;20.10;73.70;;;;;;6252099;22;20015;-90
2023/08/22 09:24:10;;;;;;;807.72;736.97;;;20.20;74.00;;;;;;6276759;22;20026;-90
2023/08/22 09:26:37;;;;;;;823.30;748.92;;;20.30;73.70;;;;;;6270939;22;20011;-90
2023/08/22 09:29:07;;;;;;;791.30;721.42;;;20.30;73.80;;;;;;6275370;22;20043;-90
2023/08/22 09:31:36;;;;;;;811.60;738.95;;;20.50;73.80;;;;;;6277049;22;20392;-89
2023/08/22 09:34:09;;;;;;;803.92;732.13;;;20.50;73.90;;;;;;6251262;22;20019;-90
2023/08/22 09:36:44;;;;;;;812.97;739.47;;;20.60;73.70;;;;;;6247000;22;20102;-89
2023/08/22 09:39:16;;;;;;;792.65;722.78;;;20.70;73.40;;;;;;6251538;22;20019;-90
2023/08/22 09:41:42;;;;;;;789.50;719.40;;;20.80;73.90;;;;;;6252196;22;20015;-89
2023/08/22 09:44:10;;;;;;;808.83;736.50;;;20.90;73.70;;;;;;6276605;22;20030;-91
2023/08/22 09:46:41;;;;;;;813.30;739.28;;;21.00;73.90;;;;;;6245420;22;20674;-89
2023/08/22 09:49:10;;;;;;;836.83;762.78;;;21.00;73.70;;;;;;6274424;22;20156;-90
2023/08/22 09:51:37;;;;;;;822.58;748.45;;;21.00;73.60;;;;;;6252210;22;20441;-89
2023/08/22 09:54:05;;;;;;;827.53;752.40;;;21.10;73.50;;;;;;6248566;22;20042;-90
2023/08/22 09:56:32;;;;;;;819.85;747.42;;;21.10;73.40;;;;;;6246828;22;20015;-89
2023/08/22 09:59:03;;;;;;;819.63;745.80;;;21.10;73.50;;;;;;6247676;22;20051;-89
2023/08/22 10:01:37;;;;;;;850.20;772.22;;;21.10;73.40;;;;;;6277867;22;20054;-90
2023/08/22 10:04:04;;;;;;;833.50;759.25;;;21.10;73.40;;;;;;6250042;22;20378;-89
2023/08/22 10:06:37;;;;;;;855.88;777.30;;;21.30;73.40;;;;;;6272655;22;20082;-90
2023/08/22 10:09:10;;;;;;;826.83;753.55;;;21.30;73.10;;;;;;6247802;22;20446;-89
2023/08/22 10:12:01;;;;;;;824.58;749.85;;;21.40;73.20;;;;;;6277438;22;20011;-89
2023/08/22 10:14:35;;;;;;;828.88;753.45;;;21.40;73.40;;;;;;6276488;22;20016;-88
2023/08/22 10:17:02;;;;;;;774.65;705.00;;;21.50;73.20;;;;;;6239670;22;20027;-90
2023/08/22 10:19:30;;;;;;;897.65;810.00;;;21.50;73.10;;;;;;6232763;22;20031;-90
2023/08/22 10:22:06;;;;;;;798.15;727.63;;;21.50;73.10;;;;;;6248843;22;20434;-90
2023/08/22 10:24:33;;;;;;;826.30;752.63;;;21.70;73.70;;;;;;6247689;22;20026;-88
2023/08/22 10:27:00;;;;;;;836.35;759.72;;;21.70;73.20;;;;;;6244142;22;20096;-89
2023/08/22 10:29:44;;;;;;;915.78;823.05;;;21.80;72.90;;;;;;6275121;22;20118;-89
2023/08/22 10:32:10;;;;;;;855.20;777.83;;;21.90;71.90;;;;;;6275852;22;20027;-90
2023/08/22 10:34:39;;;;;;;890.10;806.28;;;21.90;72.00;;;;;;6252468;22;20045;-90
2023/08/22 10:37:18;;;;;;;868.20;788.50;;;21.90;72.10;;;;;;6244099;22;20022;-90
2023/08/22 10:39:46;;;;;;;855.47;780.65;;;21.90;71.70;;;;;;6250989;22;20019;-89
2023/08/22 10:42:22;;;;;;;885.85;803.30;;;22.00;72.10;;;;;;6249627;22;20524;-91
2023/08/22 10:44:52;;;;;;;847.90;770.13;;;22.10;71.10;;;;;;6252570;22;20064;-90
2023/08/22 10:47:31;;;;;;;834.67;761.00;;;22.10;71.20;;;;;;6216003;22;20023;-90
2023/08/22 10:50:00;;;;;;;861.65;778.50;;;22.10;69.80;;;;;;6277657;22;20018;-90
2023/08/22 10:52:35;;;;;;;871.30;789.40;;;22.20;71.00;;;;;;6249959;22;20027;-89
2023/08/22 10:55:23;;;;;;;848.42;771.22;;;22.40;70.60;;;;;;6252268;22;20015;-91
2023/08/22 10:57:57;;;;;;;856.65;778.95;;;22.50;67.70;;;;;;6250012;22;20026;-88
2023/08/22 11:00:25;;;;;;;;;;;22.50;68.40;;;;;;6252297;22;20096;-90
2023/08/22 11:02:57;;;;;;;841.70;764.13;;;22.30;67.60;;;;;;6274978;22;19919;-89
2023/08/22 11:05:23;;;;;;;864.58;785.63;;;22.30;68.20;;;;;;6252229;22;20020;-90
2023/08/22 11:07:51;;;;;;;878.40;795.30;;;22.30;68.30;;;;;;6242127;22;20019;-90
2023/08/22 11:10:22;;;;;;;893.75;812.78;;;22.30;68.10;;;;;;6227471;22;20026;-89
2023/08/22 11:12:49;;;;;;;;;;;22.30;67.50;;;;;;6250847;22;20090;-89
2023/08/22 11:15:16;;;;;;;876.13;795.72;;;22.20;67.50;;;;;;6277443;22;19915;-90
2023/08/22 11:17:43;;;;;;;881.22;800.00;;;22.20;68.20;;;;;;6241637;22;20038;-90
2023/08/22 11:20:20;;;;;;;858.42;781.70;;;22.30;68.50;;;;;;6252323;22;20015;-89
2023/08/22 11:22:49;;;;;;;863.08;786.78;;;22.30;67.90;;;;;;6235362;22;20011;-89
2023/08/22 11:25:23;;;;;;;869.90;786.92;;;22.50;68.70;;;;;;6226808;22;20084;-89
2023/08/22 11:27:49;;;;;;;861.92;784.45;;;22.60;68.20;;;;;;6241896;22;20018;-90
2023/08/22 11:30:18;;;;;;;854.80;778.22;;;22.70;68.30;;;;;;6271892;22;20334;-89
2023/08/22 11:32:45;;;;;;;868.03;788.83;;;22.80;68.70;;;;;;6233195;22;20015;-89
2023/08/22 11:35:11;;;;;;;858.67;783.65;;;22.80;67.50;;;;;;6221412;22;20051;-90
2023/08/22 11:37:38;;;;;;;880.22;799.30;;;22.80;67.50;;;;;;6237787;22;20030;-89
2023/08/22 11:40:08;;;;;;;870.95;788.75;;;22.70;67.70;;;;;;6221718;22;20154;-90
2023/08/22 11:42:35;;;;;;;885.30;798.67;;;22.70;67.70;;;;;;6233552;22;20019;-91
2023/08/22 11:45:17;;;;;;;877.70;795.55;;;22.80;68.00;;;;;;6246789;22;20012;-90
2023/08/22 11:47:56;;;;;;;875.63;796.10;;;22.90;67.90;;;;;;6225994;22;20046;-91
2023/08/22 11:50:41;;;;;;;891.10;808.80;;;23.00;66.30;;;;;;6247614;22;20015;-90
2023/08/22 11:53:14;;;;;;;875.20;794.25;;;23.00;66.70;;;;;;6223133;22;20043;-91
2023/08/22 11:58:42;;;;;;;839.67;762.83;;;22.80;67.40;;;;;;6252574;22;20039;-90
2023/08/22 12:01:08;;;;;;;884.25;800.33;;;22.70;66.80;;;;;;6247462;22;20016;-90
2023/08/22 12:03:44;;;;;;;872.63;793.42;;;22.70;67.00;;;;;;6244510;22;20346;-91
2023/08/22 12:06:22;;;;;;;850.22;774.72;;;22.70;66.00;;;;;;6271152;22;20022;-92
2023/08/22 12:08:55;;;;;;;845.10;768.72;;;22.60;66.60;;;;;;6216497;22;20031;-90
2023/08/22 12:11:23;;;;;;;859.05;783.47;;;22.60;65.80;;;;;;6248742;22;20077;-90
2023/08/22 12:13:49;;;;;;;894.22;810.63;;;22.70;66.20;;;;;;6246233;22;20378;-91
2023/08/22 12:16:15;;;;;;;883.33;802.65;;;22.80;66.50;;;;;;6246476;22;20431;-91
2023/08/22 12:18:42;;;;;;;890.63;807.58;;;22.90;66.80;;;;;;6240470;22;20020;-91
2023/08/22 12:21:18;;;;;;;933.90;837.28;;;23.00;66.50;;;;;;6224217;22;20043;-92
2023/08/22 12:23:53;;;;;;;889.65;808.95;;;23.00;65.90;;;;;;6233592;22;20023;-91
2023/08/22 12:26:19;;;;;;;877.55;794.90;;;22.90;66.50;;;;;;6222458;22;20016;-90